Time;durP1;ratioP1;P1;durP2;ratioP2;P2;SDS_P1;SDS_P2;PMS_P1;PMS_P2;Temp;Humidity;BMP_temperature;BMP_pressure;BME280_temperature;BME280_humidity;BME280_pressure;Samples;Min_cycle;Max_cycle;Signal;HPM_P1;HPM_P2
2023/05/21 00:02:10;;;;;;;0.10;0.10;;;;;;;21.83;45.99;102042.28;5024614;28;20601;-69
2023/05/21 00:04:40;;;;;;;0.10;0.10;;;;;;;22.04;45.78;102045.84;5022144;28;20038;-69
2023/05/21 00:07:07;;;;;;;0.10;0.10;;;;;;;21.46;47.12;102038.81;5034520;28;20093;-68
2023/05/21 00:09:33;;;;;;;0.10;0.10;;;;;;;21.44;46.85;102037.47;5044119;28;20025;-68
2023/05/21 00:11:58;;;;;;;0.10;0.10;;;;;;;21.53;47.14;102036.69;5041541;28;20036;-68
2023/05/21 00:14:23;;;;;;;0.10;0.10;;;;;;;21.46;46.99;102036.09;5043131;28;20388;-68
2023/05/21 00:16:49;;;;;;;0.10;0.10;;;;;;;21.81;46.95;102030.78;5043507;28;20032;-69
2023/05/21 00:19:15;;;;;;;0.10;0.10;;;;;;;21.93;46.32;102024.22;5041227;28;20037;-68
2023/05/21 00:21:40;;;;;;;0.10;0.10;;;;;;;21.89;46.58;102023.09;5044708;28;20025;-68
2023/05/21 00:24:06;;;;;;;0.10;0.10;;;;;;;21.86;46.75;102024.47;5041198;28;20079;-68
2023/05/21 00:26:31;;;;;;;0.10;0.10;;;;;;;21.92;46.50;102019.81;5042374;28;20033;-68
2023/05/21 00:28:57;;;;;;;0.10;0.10;;;;;;;21.95;46.61;102017.38;5042684;28;20030;-68
2023/05/21 00:31:22;;;;;;;0.10;0.10;;;;;;;22.08;46.28;102013.25;5044076;28;20031;-67
2023/05/21 00:33:47;;;;;;;0.10;0.10;;;;;;;21.66;46.98;102013.47;5043284;28;20033;-68
2023/05/21 00:36:13;;;;;;;0.10;0.10;;;;;;;21.60;47.53;102018.09;5042177;28;20037;-68
2023/05/21 00:38:42;;;;;;;0.10;0.10;;;;;;;21.87;47.47;102015.19;5041293;28;20115;-68
2023/05/21 00:41:10;;;;;;;0.10;0.10;;;;;;;22.07;46.32;102008.91;5034924;28;20030;-68
2023/05/21 00:43:39;;;;;;;0.10;0.10;;;;;;;21.95;46.97;102008.34;5033089;28;20298;-68
2023/05/21 00:46:12;;;;;;;0.10;0.10;;;;;;;21.55;48.36;102012.63;5049640;28;20094;-69
2023/05/21 00:48:38;;;;;;;0.10;0.10;;;;;;;21.74;48.15;102007.44;5049984;28;20136;-68
2023/05/21 00:51:05;;;;;;;0.10;0.10;;;;;;;21.77;47.96;101996.78;5049545;28;20045;-67
2023/05/21 00:53:33;;;;;;;0.00;0.00;;;;;;;21.38;48.86;101995.63;5038973;28;20044;-68
2023/05/21 00:55:59;;;;;;;0.20;0.20;;;;;;;21.82;47.63;101994.09;5029681;28;20113;-69
2023/05/21 00:58:25;;;;;;;0.10;0.10;;;;;;;21.99;47.16;101991.09;5049599;28;20055;-68
2023/05/21 01:00:54;;;;;;;0.10;0.10;;;;;;;21.72;47.90;101996.78;5050426;28;20025;-68
2023/05/21 01:03:21;;;;;;;0.10;0.10;;;;;;;21.18;49.64;101994.69;5049716;28;20033;-68
2023/05/21 01:05:47;;;;;;;0.10;0.10;;;;;;;21.44;49.06;101996.44;5049330;28;20033;-68
2023/05/21 01:08:13;;;;;;;0.10;0.10;;;;;;;21.88;48.38;102008.59;5047190;28;20048;-68
2023/05/21 01:10:39;;;;;;;0.10;0.10;;;;;;;22.06;47.27;101994.38;5049480;28;20033;-67
2023/05/21 01:13:04;;;;;;;0.10;0.10;;;;;;;22.14;47.02;101993.84;5050305;28;20047;-68
2023/05/21 01:15:30;;;;;;;0.10;0.10;;;;;;;21.46;49.35;101995.06;5049695;28;20037;-67
2023/05/21 01:17:56;;;;;;;0.10;0.10;;;;;;;21.35;49.25;101996.13;5049617;28;20093;-69
2023/05/21 01:20:23;;;;;;;0.10;0.10;;;;;;;21.92;48.13;101993.28;5049413;28;20041;-68
2023/05/21 01:22:55;;;;;;;0.10;0.10;;;;;;;21.75;48.58;101985.31;5049832;28;20025;-67
2023/05/21 01:25:22;;;;;;;0.00;0.00;;;;;;;21.86;48.14;101986.16;5049705;28;20034;-69
2023/05/21 01:27:48;;;;;;;0.10;0.10;;;;;;;21.30;50.32;101984.38;5050339;28;20025;-69
2023/05/21 01:30:15;;;;;;;0.10;0.10;;;;;;;21.09;50.66;101988.91;5049648;28;20044;-68
2023/05/21 01:32:48;;;;;;;0.10;0.10;;;;;;;20.83;51.49;101987.13;5049545;28;20510;-68
2023/05/21 01:35:34;;;;;;;0.10;0.10;;;;;;;20.95;51.33;101982.28;5049307;28;20037;-68
2023/05/21 01:38:15;;;;;;;0.10;0.10;;;;;;;21.13;51.07;101979.09;5049639;28;20036;-69
2023/05/21 01:40:50;;;;;;;0.10;0.10;;;;;;;20.73;52.41;101981.63;5049507;28;20480;-69
2023/05/21 01:43:18;;;;;;;0.00;0.00;;;;;;;20.97;51.20;101980.09;5032017;28;20028;-68
2023/05/21 01:45:46;;;;;;;0.20;0.20;;;;;;;21.37;50.63;101979.44;5052164;28;20064;-68
2023/05/21 01:48:12;;;;;;;0.10;0.10;;;;;;;20.84;51.58;101980.56;5065633;28;20560;-67
2023/05/21 01:50:39;;;;;;;0.20;0.20;;;;;;;20.81;52.52;101976.44;5068956;28;20036;-68
2023/05/21 01:53:04;;;;;;;0.10;0.10;;;;;;;20.97;51.15;101975.44;5060286;28;20045;-68
2023/05/21 01:55:31;;;;;;;0.20;0.20;;;;;;;21.55;49.75;101973.47;5049488;28;20071;-68
2023/05/21 01:57:58;;;;;;;0.10;0.10;;;;;;;21.51;49.56;101970.47;5049685;28;20043;-69
2023/05/21 02:00:29;;;;;;;0.20;0.20;;;;;;;21.05;50.65;101971.41;5050099;28;20047;-68
2023/05/21 02:02:55;;;;;;;0.10;0.10;;;;;;;21.25;50.27;101963.28;5053051;28;20112;-69
2023/05/21 02:05:20;;;;;;;0.10;0.10;;;;;;;20.86;51.87;101981.97;5052545;28;20124;-68
2023/05/21 02:07:46;;;;;;;0.10;0.10;;;;;;;21.05;51.46;101967.88;5052160;28;20086;-68
2023/05/21 02:10:12;;;;;;;0.10;0.10;;;;;;;21.04;51.24;101958.84;5052662;28;20025;-68
2023/05/21 02:12:37;;;;;;;0.10;0.10;;;;;;;21.00;51.93;101969.47;5052338;28;20491;-68
2023/05/21 02:15:04;;;;;;;0.10;0.10;;;;;;;20.15;54.47;101969.72;5051983;28;20025;-68
2023/05/21 02:17:32;;;;;;;0.10;0.10;;;;;;;20.77;52.98;101963.59;5052196;28;20036;-69
2023/05/21 02:20:06;;;;;;;0.10;0.10;;;;;;;20.47;53.68;101963.41;5052183;28;20021;-68
2023/05/21 02:22:31;;;;;;;0.10;0.10;;;;;;;21.10;51.89;101959.69;5052040;28;20074;-68
2023/05/21 02:24:56;;;;;;;0.10;0.10;;;;;;;20.91;52.20;101960.09;5052411;28;20029;-70
2023/05/21 02:27:22;;;;;;;0.10;0.10;;;;;;;21.14;51.74;101963.53;5051607;28;20037;-68
2023/05/21 02:29:48;;;;;;;0.10;0.10;;;;;;;20.88;51.98;101962.56;5052034;28;20056;-68
2023/05/21 02:32:13;;;;;;;0.10;0.10;;;;;;;20.54;53.40;101972.22;5052152;28;20033;-68
2023/05/21 02:34:41;;;;;;;0.10;0.10;;;;;;;21.17;51.83;101968.47;5051755;28;20033;-69
2023/05/21 02:37:08;;;;;;;0.10;0.10;;;;;;;21.38;51.55;101962.78;5052559;28;20102;-68
2023/05/21 02:39:33;;;;;;;0.10;0.10;;;;;;;21.00;52.10;101955.78;5052173;28;20033;-68
2023/05/21 02:41:59;;;;;;;0.10;0.10;;;;;;;20.28;54.51;101957.56;5052035;28;20033;-70
2023/05/21 02:44:24;;;;;;;0.10;0.10;;;;;;;19.86;55.88;101957.47;5052326;28;20037;-69
2023/05/21 02:46:50;;;;;;;0.13;0.13;;;;;;;20.83;53.48;101955.16;5051899;28;20033;-69
2023/05/21 02:49:15;;;;;;;0.10;0.10;;;;;;;20.30;54.35;101960.03;5052061;28;20024;-69
2023/05/21 02:51:40;;;;;;;0.10;0.10;;;;;;;20.34;54.09;101959.25;5052201;28;20450;-69
2023/05/21 02:54:06;;;;;;;0.10;0.10;;;;;;;20.75;53.65;101958.41;5051860;28;20025;-67
2023/05/21 02:56:31;;;;;;;0.10;0.10;;;;;;;20.93;53.03;101949.72;5051677;28;20036;-68
2023/05/21 02:58:56;;;;;;;0.10;0.10;;;;;;;20.97;53.23;101948.13;5051598;28;20037;-69
2023/05/21 03:01:22;;;;;;;0.13;0.13;;;;;;;20.50;53.57;101952.78;5052044;28;20408;-69
2023/05/21 03:03:47;;;;;;;0.10;0.10;;;;;;;21.14;52.28;101956.16;5052084;28;20052;-68
2023/05/21 03:06:13;;;;;;;0.10;0.10;;;;;;;21.29;51.80;101945.25;5051486;28;20071;-68
2023/05/21 03:08:38;;;;;;;0.10;0.10;;;;;;;21.35;51.72;101952.38;5033427;28;20610;-68
2023/05/21 03:11:03;;;;;;;0.10;0.10;;;;;;;20.22;55.01;101960.53;5051491;28;20041;-68
2023/05/21 03:13:29;;;;;;;0.10;0.10;;;;;;;20.29;55.62;101958.38;5050763;28;20031;-68
2023/05/21 03:15:55;;;;;;;0.10;0.10;;;;;;;19.94;56.16;101951.53;5052226;28;20505;-67
2023/05/21 03:18:21;;;;;;;0.10;0.10;;;;;;;20.49;54.30;101956.63;5051497;28;20041;-68
2023/05/21 03:20:46;;;;;;;0.10;0.10;;;;;;;19.59;57.69;101956.69;5051675;28;20032;-68
2023/05/21 03:23:12;;;;;;;0.10;0.10;;;;;;;19.61;57.93;101954.53;5051336;28;20501;-69
2023/05/21 03:25:38;;;;;;;0.13;0.13;;;;;;;19.58;57.66;101957.75;5051584;28;20048;-68
2023/05/21 03:28:05;;;;;;;0.20;0.20;;;;;;;20.93;53.86;101952.47;5051816;28;20167;-69
2023/05/21 03:30:31;;;;;;;0.17;0.17;;;;;;;20.61;54.73;101948.22;5051489;28;20041;-68
2023/05/21 03:32:56;;;;;;;0.20;0.20;;;;;;;20.24;55.91;101955.63;5051597;28;20087;-69
2023/05/21 03:35:21;;;;;;;0.10;0.10;;;;;;;20.30;55.11;101960.03;5051287;28;20091;-68
2023/05/21 03:37:47;;;;;;;0.10;0.10;;;;;;;20.56;54.46;101961.84;5046184;28;20033;-68
2023/05/21 03:40:13;;;;;;;0.10;0.10;;;;;;;20.46;54.90;101961.78;5031196;28;20030;-68
2023/05/21 03:42:38;;;;;;;0.10;0.10;;;;;;;20.61;54.76;101949.03;5051455;28;20044;-68
2023/05/21 03:45:05;;;;;;;0.20;0.20;;;;;;;20.94;54.05;101947.84;5060813;28;20037;-67
2023/05/21 03:47:30;;;;;;;0.20;0.20;;;;;;;21.14;53.28;101950.69;5051316;28;20570;-68
2023/05/21 03:49:56;;;;;;;0.10;0.10;;;;;;;20.99;53.08;101940.47;5065143;28;20028;-67
2023/05/21 03:52:21;;;;;;;0.10;0.10;;;;;;;20.39;55.38;101948.34;5070368;28;20024;-68
2023/05/21 03:54:46;;;;;;;0.10;0.10;;;;;;;19.74;57.07;101940.44;5071498;28;20715;-69
2023/05/21 03:57:12;;;;;;;0.10;0.10;;;;;;;20.13;56.51;101950.06;5070510;28;20500;-70
2023/05/21 03:59:37;;;;;;;0.10;0.10;;;;;;;20.73;54.78;101946.94;5070803;28;20090;-68
2023/05/21 04:02:03;;;;;;;0.10;0.10;;;;;;;20.47;55.09;101953.31;5058721;28;20036;-68
2023/05/21 04:04:28;;;;;;;0.15;0.15;;;;;;;20.10;56.34;101950.59;5050346;28;20020;-69
2023/05/21 04:06:54;;;;;;;0.10;0.10;;;;;;;19.59;58.28;101959.41;5049864;28;20079;-69
2023/05/21 04:09:20;;;;;;;0.17;0.17;;;;;;;19.05;60.01;101946.75;5049927;28;20129;-69
2023/05/21 04:11:46;;;;;;;0.15;0.15;;;;;;;19.65;58.82;101952.09;5050265;28;20386;-68
2023/05/21 04:14:11;;;;;;;0.10;0.10;;;;;;;20.70;55.15;101954.81;5049772;28;20021;-69
2023/05/21 04:16:37;;;;;;;0.10;0.10;;;;;;;20.55;55.31;101955.56;5050735;28;20029;-69
2023/05/21 04:19:03;;;;;;;0.10;0.10;;;;;;;19.80;57.42;101958.50;5051156;28;20149;-68
2023/05/21 04:21:28;;;;;;;0.10;0.10;;;;;;;20.75;54.91;101954.84;5050127;28;20519;-68
2023/05/21 04:23:56;;;;;;;0.10;0.10;;;;;;;20.58;55.33;101954.22;5049912;28;20042;-68
2023/05/21 04:26:22;;;;;;;0.10;0.10;;;;;;;20.75;55.28;101960.31;5050120;28;20057;-68
2023/05/21 04:28:48;;;;;;;0.10;0.10;;;;;;;20.66;54.59;101960.00;5050163;28;20037;-68
2023/05/21 04:31:13;;;;;;;0.10;0.10;;;;;;;20.66;54.38;101959.16;5050286;28;20074;-69
2023/05/21 04:33:40;;;;;;;0.10;0.10;;;;;;;20.81;54.12;101959.25;5050700;28;20036;-69
2023/05/21 04:36:08;;;;;;;0.10;0.10;;;;;;;20.30;56.00;101957.31;5050060;28;20524;-68
2023/05/21 04:38:35;;;;;;;0.10;0.10;;;;;;;20.22;56.56;101960.53;5049916;28;20040;-68
2023/05/21 04:41:02;;;;;;;0.10;0.10;;;;;;;19.93;57.77;101958.06;5050043;28;20065;-69
2023/05/21 04:43:28;;;;;;;0.10;0.10;;;;;;;20.76;55.17;101957.31;5050179;28;20112;-68
2023/05/21 04:45:53;;;;;;;0.13;0.13;;;;;;;20.26;56.41;101961.66;5050850;28;20105;-69
2023/05/21 04:48:20;;;;;;;0.10;0.10;;;;;;;20.52;56.15;101952.53;5049419;28;20044;-68
2023/05/21 04:50:45;;;;;;;0.13;0.13;;;;;;;20.62;55.63;101956.13;5050153;28;20037;-68
2023/05/21 04:53:11;;;;;;;0.10;0.10;;;;;;;20.71;55.47;101954.56;5049982;28;20025;-69
2023/05/21 04:55:38;;;;;;;0.10;0.10;;;;;;;20.86;54.88;101954.63;5049908;28;20123;-69
2023/05/21 04:58:10;;;;;;;0.10;0.10;;;;;;;21.19;54.26;101947.94;5050087;28;20041;-70
2023/05/21 05:00:37;;;;;;;0.10;0.10;;;;;;;21.23;53.78;101951.00;5049721;28;20068;-69
2023/05/21 05:03:03;;;;;;;0.15;0.15;;;;;;;21.33;53.52;101942.78;5050017;28;20057;-69
2023/05/21 05:05:28;;;;;;;0.10;0.10;;;;;;;20.92;54.14;101945.38;5049636;28;20103;-69
2023/05/21 05:07:54;;;;;;;0.10;0.10;;;;;;;21.31;53.35;101944.97;5049400;28;20044;-69
2023/05/21 05:10:20;;;;;;;0.20;0.20;;;;;;;22.05;50.65;101954.41;5049746;28;20451;-68
2023/05/21 05:12:45;;;;;;;0.10;0.10;;;;;;;21.69;51.27;101950.81;5050188;28;20032;-68
2023/05/21 05:15:10;;;;;;;0.10;0.10;;;;;;;21.61;51.73;101951.34;5049771;28;20063;-68
2023/05/21 05:17:36;;;;;;;0.10;0.10;;;;;;;20.83;53.72;101957.09;5049905;28;20480;-68
2023/05/21 05:20:01;;;;;;;0.10;0.10;;;;;;;21.42;52.78;101952.97;5049526;28;20036;-69
2023/05/21 05:22:26;;;;;;;0.10;0.10;;;;;;;22.18;50.44;101947.56;5049580;28;20361;-67
2023/05/21 05:24:52;;;;;;;0.10;0.10;;;;;;;21.38;52.67;101961.97;5049891;28;20622;-67
2023/05/21 05:27:17;;;;;;;0.10;0.10;;;;;;;21.33;52.79;101953.72;5049362;28;20033;-68
2023/05/21 05:29:44;;;;;;;0.15;0.15;;;;;;;21.12;53.94;101961.06;5031917;28;20059;-68
2023/05/21 05:32:09;;;;;;;0.10;0.10;;;;;;;21.24;53.30;101958.09;5049719;28;20436;-70
2023/05/21 05:34:34;;;;;;;0.10;0.10;;;;;;;21.66;52.27;101958.75;5049634;28;20025;-69
2023/05/21 05:37:01;;;;;;;0.10;0.10;;;;;;;20.85;54.72;101954.91;5053201;28;20033;-69
2023/05/21 05:39:27;;;;;;;0.10;0.10;;;;;;;21.10;53.41;101952.31;5053096;28;20041;-69
2023/05/21 05:41:52;;;;;;;0.10;0.10;;;;;;;21.33;52.74;101949.09;5052973;28;20083;-69
2023/05/21 05:44:17;;;;;;;0.17;0.17;;;;;;;20.60;55.11;101957.50;5053623;28;20044;-69
2023/05/21 05:46:43;;;;;;;0.10;0.10;;;;;;;20.88;53.76;101957.94;5053370;28;20037;-68
2023/05/21 05:49:08;;;;;;;0.10;0.10;;;;;;;20.65;54.96;101957.53;5053324;28;20429;-69
2023/05/21 05:51:33;;;;;;;0.20;0.20;;;;;;;20.64;55.14;101951.22;5053319;28;20037;-69
2023/05/21 05:53:59;;;;;;;0.17;0.17;;;;;;;20.86;54.03;101951.91;5052882;28;20083;-68
2023/05/21 05:56:25;;;;;;;0.10;0.10;;;;;;;21.12;53.42;101947.41;5052969;28;20037;-68
2023/05/21 05:58:51;;;;;;;0.10;0.10;;;;;;;21.15;52.87;101957.78;5053055;28;20029;-68
2023/05/21 06:01:16;;;;;;;0.10;0.10;;;;;;;21.78;51.75;101951.91;5053541;28;20151;-68
2023/05/21 06:03:41;;;;;;;0.10;0.10;;;;;;;21.42;52.29;101952.13;5053249;28;20445;-67
2023/05/21 06:06:07;;;;;;;0.10;0.10;;;;;;;20.86;54.04;101940.97;5053032;28;20099;-67
2023/05/21 06:08:33;;;;;;;0.10;0.10;;;;;;;21.56;53.01;101951.31;5052417;28;20048;-68
2023/05/21 06:10:59;;;;;;;0.10;0.10;;;;;;;21.16;52.79;101945.78;5052785;28;20087;-67
2023/05/21 06:13:24;;;;;;;0.10;0.10;;;;;;;19.97;56.64;101950.19;5051080;28;20052;-68
2023/05/21 06:15:50;;;;;;;0.10;0.10;;;;;;;20.49;56.07;101945.69;5053370;28;20217;-67
2023/05/21 06:18:15;;;;;;;0.10;0.10;;;;;;;20.42;56.29;101950.56;5052842;28;20041;-69
2023/05/21 06:20:41;;;;;;;0.10;0.10;;;;;;;20.88;55.22;101946.16;5052517;28;20041;-68
2023/05/21 06:23:07;;;;;;;0.10;0.10;;;;;;;21.33;53.45;101935.41;5052529;28;20029;-69
2023/05/21 06:25:33;;;;;;;0.13;0.13;;;;;;;21.84;51.67;101939.91;5052361;28;20044;-70
2023/05/21 06:27:58;;;;;;;0.10;0.10;;;;;;;21.73;51.50;101951.09;5052754;28;20396;-69
2023/05/21 06:30:24;;;;;;;0.10;0.10;;;;;;;22.15;50.95;101948.13;5052469;28;20037;-67
2023/05/21 06:32:49;;;;;;;0.10;0.10;;;;;;;22.39;50.03;101949.16;5052420;28;20132;-68
2023/05/21 06:35:15;;;;;;;0.10;0.10;;;;;;;22.66;49.71;101946.97;5052088;28;20033;-69
2023/05/21 06:37:41;;;;;;;0.20;0.20;;;;;;;21.73;52.12;101948.34;5052271;28;20489;-69
2023/05/21 06:40:07;;;;;;;0.10;0.10;;;;;;;21.72;51.91;101933.84;5052746;28;20040;-69
2023/05/21 06:42:33;;;;;;;0.10;0.10;;;;;;;22.40;50.17;101939.84;5051183;28;20102;-68
2023/05/21 06:44:58;;;;;;;0.05;0.05;;;;;;;22.23;50.85;101939.34;5033926;28;20045;-67
2023/05/21 06:47:24;;;;;;;0.10;0.10;;;;;;;21.49;52.72;101933.53;5051654;28;20040;-68
2023/05/21 06:49:49;;;;;;;0.10;0.10;;;;;;;22.62;49.69;101929.44;5051409;28;20029;-68
2023/05/21 06:52:15;;;;;;;0.10;0.10;;;;;;;22.72;49.06;101932.16;5051747;28;20044;-68
2023/05/21 06:54:41;;;;;;;0.10;0.10;;;;;;;22.00;51.71;101931.69;5033645;28;20537;-69
2023/05/21 06:57:06;;;;;;;0.10;0.10;;;;;;;22.08;51.08;101926.47;5051351;28;20048;-67
2023/05/21 06:59:32;;;;;;;0.10;0.10;;;;;;;21.27;53.66;101928.28;5051415;28;20114;-68
2023/05/21 07:01:57;;;;;;;0.10;0.10;;;;;;;22.63;50.34;101928.31;5051164;28;20032;-68
2023/05/21 07:04:23;;;;;;;0.10;0.10;;;;;;;23.86;46.48;101922.72;5051268;28;20562;-69
2023/05/21 07:06:48;;;;;;;0.10;0.10;;;;;;;23.59;47.17;101920.44;5051380;28;20036;-68
2023/05/21 07:09:14;;;;;;;0.10;0.10;;;;;;;23.05;48.55;101920.47;5050797;28;20033;-68
2023/05/21 07:11:39;;;;;;;0.00;0.00;;;;;;;23.77;46.56;101922.50;5050951;28;20060;-68
2023/05/21 07:14:05;;;;;;;0.10;0.10;;;;;;;24.12;45.86;101913.16;5053161;28;20429;-68
2023/05/21 07:16:30;;;;;;;0.08;0.08;;;;;;;24.17;45.51;101913.13;5050797;28;20442;-68
2023/05/21 07:18:55;;;;;;;0.00;0.00;;;;;;;24.11;46.03;101917.03;5051125;28;20021;-70
2023/05/21 07:21:21;;;;;;;0.05;0.05;;;;;;;24.03;45.67;101912.97;5050627;28;20067;-68
2023/05/21 07:23:46;;;;;;;0.10;0.10;;;;;;;24.66;44.81;101915.59;5050188;28;20037;-68
2023/05/21 07:26:12;;;;;;;0.00;0.00;;;;;;;23.53;46.49;101916.09;5050556;28;20033;-69
2023/05/21 07:28:37;;;;;;;0.10;0.10;;;;;;;23.61;47.04;101920.97;5050251;28;20060;-67
2023/05/21 07:31:02;;;;;;;0.08;0.08;;;;;;;23.84;46.80;101928.47;5053993;28;20029;-68
2023/05/21 07:33:28;;;;;;;0.10;0.10;;;;;;;24.09;46.48;101922.81;5050141;28;20050;-68
2023/05/21 07:35:53;;;;;;;0.05;0.05;;;;;;;24.75;44.84;101928.44;5049958;28;20040;-69
2023/05/21 07:38:19;;;;;;;0.10;0.10;;;;;;;25.12;43.55;101927.69;5050175;28;20083;-69
2023/05/21 07:40:44;;;;;;;0.10;0.10;;;;;;;24.32;45.10;101930.25;5049974;28;20531;-69
2023/05/21 07:43:09;;;;;;;0.10;0.10;;;;;;;24.12;45.46;101926.88;5051106;28;20028;-69
2023/05/21 07:45:35;;;;;;;0.10;0.10;;;;;;;23.73;46.39;101929.66;5050223;28;20107;-70
2023/05/21 07:48:01;;;;;;;0.10;0.10;;;;;;;23.36;48.08;101921.16;5050104;28;20041;-69
2023/05/21 07:50:27;;;;;;;0.00;0.00;;;;;;;23.54;47.43;101915.00;5035534;28;20449;-69
2023/05/21 07:52:52;;;;;;;0.10;0.10;;;;;;;24.14;45.86;101922.75;5050676;28;20104;-69
2023/05/21 07:55:17;;;;;;;0.00;0.00;;;;;;;24.12;45.85;101924.97;5050029;28;20373;-68
2023/05/21 07:57:44;;;;;;;0.10;0.10;;;;;;;24.36;44.81;101919.50;5049601;28;20044;-69
2023/05/21 08:00:12;;;;;;;0.00;0.00;;;;;;;23.43;48.00;101905.19;5048913;28;20102;-69
2023/05/21 08:02:38;;;;;;;0.00;0.00;;;;;;;23.93;47.00;101901.22;5049282;28;20036;-69
2023/05/21 08:05:04;;;;;;;0.10;0.10;;;;;;;22.72;49.79;101902.00;5048133;28;20064;-72
2023/05/21 08:07:31;;;;;;;0.00;0.00;;;;;;;23.26;48.72;101896.50;5048955;28;20048;-69
2023/05/21 08:09:57;;;;;;;0.10;0.10;;;;;;;23.37;47.54;101898.13;5050061;28;20401;-69
2023/05/21 08:12:22;;;;;;;0.10;0.10;;;;;;;24.36;45.67;101892.84;5047373;28;20071;-69
2023/05/21 08:14:47;;;;;;;0.03;0.03;;;;;;;24.74;44.82;101890.25;5044760;28;20034;-68
2023/05/21 08:17:13;;;;;;;0.03;0.03;;;;;;;25.24;44.00;101884.03;5044570;28;20028;-70
2023/05/21 08:19:38;;;;;;;0.10;0.10;;;;;;;24.74;45.48;101893.81;5044022;28;20040;-69
2023/05/21 08:22:05;;;;;;;0.00;0.00;;;;;;;22.94;49.21;101896.13;5046006;28;20075;-70
2023/05/21 08:24:31;;;;;;;0.00;0.00;;;;;;;24.25;46.17;101896.00;5029382;28;20029;-71
2023/05/21 08:26:56;;;;;;;0.10;0.10;;;;;;;24.81;44.61;101894.25;5040711;28;20033;-69
2023/05/21 08:29:21;;;;;;;0.10;0.10;;;;;;;24.86;44.39;101901.63;5054034;28;20036;-68
2023/05/21 08:31:47;;;;;;;0.00;0.00;;;;;;;24.33;45.97;101895.38;5054787;28;20040;-68
2023/05/21 08:34:12;;;;;;;0.00;0.00;;;;;;;23.30;48.73;101890.16;5056536;28;20025;-68
2023/05/21 08:36:38;;;;;;;0.00;0.00;;;;;;;23.36;48.66;101891.81;5052372;28;20036;-69
2023/05/21 08:39:03;;;;;;;0.05;0.05;;;;;;;24.42;46.54;101899.09;5049294;28;20481;-69
2023/05/21 08:41:30;;;;;;;0.00;0.00;;;;;;;24.68;45.83;101899.63;5056955;28;20037;-70
2023/05/21 08:43:58;;;;;;;0.00;0.00;;;;;;;25.20;44.71;101892.06;5058242;28;20044;-70
2023/05/21 08:46:25;;;;;;;0.05;0.05;;;;;;;24.67;45.73;101901.56;5057925;28;20028;-70
2023/05/21 08:48:53;;;;;;;0.00;0.00;;;;;;;24.27;46.47;101904.78;5056595;28;20132;-68
2023/05/21 08:51:20;;;;;;;0.00;0.00;;;;;;;24.10;47.25;101902.47;5057138;28;20047;-69
2023/05/21 08:53:45;;;;;;;0.00;0.00;;;;;;;23.97;47.28;101905.03;5061550;28;20112;-69
2023/05/21 08:56:12;;;;;;;0.00;0.00;;;;;;;23.74;47.71;101900.28;5060081;28;20035;-70
2023/05/21 08:58:41;;;;;;;0.00;0.00;;;;;;;25.46;43.63;101898.03;5057715;28;20032;-70
2023/05/21 09:01:08;;;;;;;0.05;0.05;;;;;;;25.19;44.23;101895.13;5061810;28;20027;-70
2023/05/21 09:03:38;;;;;;;0.00;0.00;;;;;;;26.11;42.33;101896.16;5056234;28;20095;-68
2023/05/21 09:06:04;;;;;;;0.00;0.00;;;;;;;24.92;44.89;101898.50;5055985;28;20028;-68
2023/05/21 09:08:34;;;;;;;0.00;0.00;;;;;;;25.41;44.41;101898.13;5060012;28;20385;-68
2023/05/21 09:11:01;;;;;;;0.00;0.00;;;;;;;25.26;43.89;101904.66;5058604;28;20062;-68
2023/05/21 09:13:30;;;;;;;0.00;0.00;;;;;;;26.02;42.83;101896.00;5053978;28;20023;-68
2023/05/21 09:15:55;;;;;;;0.00;0.00;;;;;;;26.01;42.00;101897.13;5062816;28;20025;-68
2023/05/21 09:18:21;;;;;;;0.00;0.00;;;;;;;26.45;40.92;101890.28;5061560;28;20045;-67
2023/05/21 09:20:46;;;;;;;0.00;0.00;;;;;;;25.70;41.82;101897.94;5063511;28;20020;-68
2023/05/21 09:23:16;;;;;;;0.00;0.00;;;;;;;24.91;44.80;101899.63;5063787;28;20021;-66
2023/05/21 09:25:46;;;;;;;0.00;0.00;;;;;;;26.64;40.97;101889.03;5055963;28;20573;-68
2023/05/21 09:28:12;;;;;;;0.00;0.00;;;;;;;25.74;42.67;101891.53;5055366;28;20037;-68
2023/05/21 09:30:45;;;;;;;0.00;0.00;;;;;;;26.56;41.41;101889.75;5036939;28;20520;-69
2023/05/21 09:33:11;;;;;;;0.00;0.00;;;;;;;25.75;42.23;101889.63;5033131;28;20046;-68
2023/05/21 09:35:43;;;;;;;0.00;0.00;;;;;;;25.43;44.00;101892.34;5046460;28;20040;-68
2023/05/21 09:38:09;;;;;;;0.00;0.00;;;;;;;24.26;45.80;101892.13;5027511;28;20068;-69
2023/05/21 09:40:35;;;;;;;0.00;0.00;;;;;;;25.68;43.04;101894.69;5032701;28;20026;-70
2023/05/21 09:43:00;;;;;;;0.00;0.00;;;;;;;24.70;45.75;101881.75;5049356;28;20040;-68
2023/05/21 09:45:27;;;;;;;0.00;0.00;;;;;;;24.56;45.37;101890.97;5036549;28;20451;-68
2023/05/21 09:47:54;;;;;;;0.00;0.00;;;;;;;25.31;44.05;101879.00;5055170;28;20032;-68
2023/05/21 09:50:30;;;;;;;0.00;0.00;;;;;;;26.25;42.49;101885.97;5057338;28;20427;-68
2023/05/21 09:52:56;;;;;;;0.00;0.00;;;;;;;26.36;41.75;101872.81;5058452;28;20016;-68
2023/05/21 09:55:25;;;;;;;0.00;0.00;;;;;;;26.52;42.60;101874.13;5066377;28;20051;-69
2023/05/21 09:57:51;;;;;;;0.00;0.00;;;;;;;27.14;39.61;101884.41;5064381;28;20031;-68
2023/05/21 10:00:26;;;;;;;0.00;0.00;;;;;;;26.56;40.71;101872.38;5055291;28;20036;-68
2023/05/21 10:02:56;;;;;;;0.00;0.00;;;;;;;26.22;41.07;101872.00;5057499;28;20056;-67
2023/05/21 10:05:26;;;;;;;0.00;0.00;;;;;;;26.32;40.93;101874.56;5032418;28;20041;-68
2023/05/21 10:07:53;;;;;;;0.00;0.00;;;;;;;25.88;42.39;101873.13;5057387;28;20041;-70
2023/05/21 10:10:21;;;;;;;0.00;0.00;;;;;;;25.67;43.05;101879.28;5057246;28;20641;-69
2023/05/21 10:12:53;;;;;;;0.00;0.00;;;;;;;24.65;45.20;101864.50;5049924;28;20044;-70
2023/05/21 10:15:23;;;;;;;0.00;0.00;;;;;;;25.09;45.26;101865.84;5054412;28;20036;-65
2023/05/21 10:17:48;;;;;;;0.00;0.00;;;;;;;25.67;43.34;101860.00;5050260;28;20029;-69
2023/05/21 10:20:15;;;;;;;0.00;0.00;;;;;;;26.33;42.71;101860.47;5049087;28;20043;-68
2023/05/21 10:22:41;;;;;;;0.00;0.00;;;;;;;27.25;39.93;101846.31;5052572;28;20020;-69
2023/05/21 10:25:07;;;;;;;0.00;0.00;;;;;;;27.38;40.12;101849.06;5056944;28;20590;-70
2023/05/21 10:27:34;;;;;;;0.00;0.00;;;;;;;25.89;43.50;101840.88;5059633;28;20059;-68
2023/05/21 10:30:00;;;;;;;0.00;0.00;;;;;;;26.02;42.73;101845.59;5057565;28;20087;-69
2023/05/21 10:32:26;;;;;;;0.00;0.00;;;;;;;25.05;45.32;101837.28;5060454;28;20036;-68
2023/05/21 10:34:53;;;;;;;0.00;0.00;;;;;;;26.18;42.81;101846.94;5054516;28;20035;-71
2023/05/21 10:37:22;;;;;;;0.00;0.00;;;;;;;25.45;45.04;101844.13;5048917;28;20044;-68
2023/05/21 10:39:49;;;;;;;0.00;0.00;;;;;;;26.33;43.16;101830.13;5050155;28;20162;-69
2023/05/21 10:42:34;;;;;;;0.00;0.00;;;;;;;27.80;39.74;101831.97;5049418;28;20624;-70
2023/05/21 10:45:03;;;;;;;0.00;0.00;;;;;;;27.66;39.59;101822.94;5046495;28;20177;-69
2023/05/21 10:47:52;;;;;;;0.00;0.00;;;;;;;28.18;38.48;101828.78;5049481;28;20027;-68
2023/05/21 10:50:29;;;;;;;0.00;0.00;;;;;;;27.43;40.01;101832.38;5053671;28;20073;-66
2023/05/21 10:53:14;;;;;;;0.00;0.00;;;;;;;28.50;37.58;101831.16;5049286;28;20012;-69
2023/05/21 10:55:50;;;;;;;0.00;0.00;;;;;;;28.59;37.44;101830.09;5059434;28;20041;-69
2023/05/21 10:58:18;;;;;;;0.00;0.00;;;;;;;26.70;40.95;101829.94;5054811;28;20082;-70
2023/05/21 11:00:44;;;;;;;0.00;0.00;;;;;;;26.28;42.87;101827.47;5045722;28;20547;-68
2023/05/21 11:03:12;;;;;;;0.00;0.00;;;;;;;27.39;41.16;101825.03;5056828;28;20097;-69
2023/05/21 11:05:40;;;;;;;0.00;0.00;;;;;;;26.18;42.74;101827.66;5050061;28;20163;-69
2023/05/21 11:08:19;;;;;;;0.00;0.00;;;;;;;26.82;41.61;101813.66;5035935;28;20485;-68
2023/05/21 11:10:50;;;;;;;0.00;0.00;;;;;;;28.23;39.23;101817.56;5037021;28;20044;-71
2023/05/21 11:13:18;;;;;;;0.00;0.00;;;;;;;29.10;37.14;101801.63;5038918;28;20040;-68
2023/05/21 11:16:00;;;;;;;0.00;0.00;;;;;;;28.96;37.47;101802.94;5038735;28;20188;-70
2023/05/21 11:18:34;;;;;;;0.00;0.00;;;;;;;29.38;37.11;101793.84;5034568;28;20029;-70
2023/05/21 11:21:11;;;;;;;0.00;0.00;;;;;;;29.69;37.06;101790.81;5036493;28;20079;-70
2023/05/21 11:23:49;;;;;;;0.00;0.00;;;;;;;28.42;38.05;101801.53;5037903;28;20033;-69